Terminal Aerodrome Forecast
Issued by NWS

Home | Current Version | Previous Version | Graphics & Text | Print | Product List | Glossary On
Versions: 1 2 3 4 5 6 7 8 9 10 11 12 13 14 15 16
618
FTUS43 KBIS 281730
TAFMOT
TAF
KMOT 281730Z 2818/2918 17010KT P6SM SCT250
     FM282100 23011KT P6SM SCT250
     FM290200 29007KT P6SM SCT250
     FM291100 33006KT P6SM SCT250=

USA.gov is the U.S. government's official web portal to all federal, state and local government web resources and services.